Capitol Logistics 7411

Operating for MZN



KAFW
Fort Worth Alliance Airport
Fort Worth, Texas
KSEA
Seattle-Tacoma International Airport
Seattle, Washington

Activity Log

Date Flight Route Aircraft Duration
03/25/2021 CPX286 SWABR5 HUDAD PNH ALS JNC TCH TWF BKE PDT CHINS3 B763 3h 54m
04/14/2020 CPX286 SWABR5 HUDAD PNH ALS JNC TCH TWF BKE PDT CHINS3 B763 4h 19m

Route Details

Aircraft Information
Primary: Boeing 767-300BDSF
Backup: Airbus A300-600F
Route Data
Distance: 1428nm
Duration: 3h 39m
Recm'd Route: SWABR7 HUDAD PNH J17 PUB EKR OCS PIH PDT CHINS4
Origin Wx: KAFW 020553Z 35004KT 10SM SCT080 BKN120 OVC210 23/22 A3005 RMK AO2 RAE0459 SLP159 P0000 60027 T02330222 10239 20233 403330233 56005 $
Dest. Wx: KSEA 020553Z 27003KT 10SM BKN250 19/14 A3011 RMK AO2 SLP200 T01890139 10272 20189 51012
Notes: